Weather at Regina International Airport

Public forecast

Using degrees Celsius for public forecast. Weather courtesy of forecast.io.

Current aviation weather report (METAR) for Regina International Airport

Retrieved 2020/11/26 14:34 UTC (0 seconds ago):

CYQR 261434Z 27014KT 5SM -SHSN BKN023 OVC065 M03/M05 A2970 RMK SC5SC3 CVCTV CLD EMBD SLP088

Aviation forecast (TAF) for Regina International Airport

Retrieved 2020/11/26 12:00 UTC (2 hours ago):

TAF TAF CYQR 261157Z 2612/2712 24005KT P6SM BKN100 TEMPO 2613/2615 3SM -SHSN VV020 FM261500 30018G28KT 4SM -SHSN VV030 TEMPO 2615/2617 2SM -SHSN VV015 FM261700 30020G30KT P6SM BKN020 FM262100 30018G28KT P6SM BKN025 BECMG 2622/2624 31012KT FM270300 26005KT P6SM SKC BECMG 2704/2706 20008KT FM270900 20008KT P6SM BKN060 RMK NXT FCST BY 261800Z